createdAt,value
2019-01-31T00:01:51.563Z,21.17
2019-01-31T00:04:14.743Z,20.03
2019-01-31T00:06:21.585Z,18.80
2019-01-31T00:08:45.188Z,18.70
2019-01-31T00:10:45.590Z,20.67
2019-01-31T00:12:58.128Z,21.13
2019-01-31T00:15:16.571Z,19.00
2019-01-31T00:17:32.258Z,19.03
2019-01-31T00:19:44.908Z,16.47
2019-01-31T00:21:54.370Z,16.73
2019-01-31T00:24:04.050Z,22.43
2019-01-31T00:26:27.382Z,21.73
2019-01-31T00:28:39.834Z,19.07
2019-01-31T00:31:15.252Z,21.07
2019-01-31T00:33:27.867Z,21.03
2019-01-31T00:35:40.870Z,23.03
2019-01-31T00:38:15.266Z,20.53
2019-01-31T00:40:34.183Z,18.43
2019-01-31T00:42:46.606Z,23.03
2019-01-31T00:45:05.712Z,21.23
2019-01-31T00:47:21.347Z,23.60
2019-01-31T00:49:36.857Z,20.97
2019-01-31T00:51:52.518Z,23.97
2019-01-31T00:54:05.073Z,21.37
2019-01-31T00:56:17.860Z,23.97
2019-01-31T00:58:27.613Z,24.27
2019-01-31T01:00:34.503Z,18.83
2019-01-31T01:02:59.808Z,25.30
2019-01-31T01:05:15.727Z,22.07
2019-01-31T01:07:22.710Z,23.00
2019-01-31T01:09:41.428Z,25.00
2019-01-31T01:11:53.984Z,25.30
2019-01-31T01:14:00.824Z,24.90
2019-01-31T01:16:19.554Z,21.47
2019-01-31T01:18:55.143Z,24.93
2019-01-31T01:21:07.579Z,23.20
2019-01-31T01:23:20.617Z,25.00
2019-01-31T01:25:36.187Z,23.93
2019-01-31T01:27:57.930Z,22.23
2019-01-31T01:30:28.948Z,24.23
2019-01-31T01:32:41.669Z,24.20
2019-01-31T01:35:10.908Z,25.40
2019-01-31T01:37:26.590Z,25.03
2019-01-31T01:39:33.382Z,24.20
2019-01-31T01:42:07.291Z,25.53
2019-01-31T01:44:25.632Z,26.37
2019-01-31T01:46:47.184Z,24.53
2019-01-31T01:49:14.976Z,25.20
2019-01-31T01:51:24.809Z,25.53
2019-01-31T01:53:37.635Z,25.40
2019-01-31T01:56:04.193Z,24.03
2019-01-31T01:58:17.128Z,26.57
2019-01-31T02:00:29.682Z,21.00
2019-01-31T02:02:51.552Z,26.53
2019-01-31T02:05:28.869Z,26.67
2019-01-31T02:07:35.702Z,26.30
2019-01-31T02:09:55.279Z,26.50
2019-01-31T02:12:11.077Z,26.33
2019-01-31T02:14:37.710Z,29.53
2019-01-31T02:16:59.846Z,28.27
2019-01-31T02:19:07.286Z,29.80
2019-01-31T02:21:23.260Z,27.17
2019-01-31T02:23:35.932Z,28.63
2019-01-31T02:25:45.669Z,27.70
2019-01-31T02:28:27.725Z,24.07
2019-01-31T02:30:40.762Z,30.70
2019-01-31T02:32:59.837Z,30.57
2019-01-31T02:35:23.785Z,30.10
2019-01-31T02:37:36.952Z,33.37
2019-01-31T02:39:49.543Z,28.73
2019-01-31T02:42:05.171Z,32.53
2019-01-31T02:44:24.085Z,24.67
2019-01-31T02:46:38.835Z,23.17
2019-01-31T02:48:49.029Z,30.50
2019-01-31T02:50:55.830Z,30.87
2019-01-31T02:53:25.619Z,29.47
2019-01-31T02:55:51.184Z,27.70
2019-01-31T02:58:28.072Z,29.13
2019-01-31T03:00:43.653Z,26.83
2019-01-31T03:03:10.139Z,26.33
2019-01-31T03:05:37.630Z,28.90
2019-01-31T03:07:56.327Z,28.90
2019-01-31T03:10:11.767Z,25.33
2019-01-31T03:12:24.741Z,28.70
2019-01-31T03:14:31.539Z,29.33
2019-01-31T03:16:38.661Z,29.60
2019-01-31T03:18:57.395Z,27.83
2019-01-31T03:21:20.831Z,29.53
2019-01-31T03:23:31.017Z,25.93
2019-01-31T03:25:37.942Z,26.03
2019-01-31T03:28:13.767Z,25.33
2019-01-31T03:30:44.902Z,28.10
2019-01-31T03:32:53.917Z,27.63
2019-01-31T03:35:22.131Z,26.67
2019-01-31T03:37:40.595Z,27.93
2019-01-31T03:40:11.410Z,27.10
2019-01-31T03:42:27.166Z,26.77
2019-01-31T03:44:36.958Z,30.13
2019-01-31T03:46:44.046Z,26.77
2019-01-31T03:48:54.382Z,27.07
2019-01-31T03:51:13.335Z,29.23
2019-01-31T03:53:41.504Z,28.33
2019-01-31T03:56:03.457Z,28.23
2019-01-31T03:58:10.726Z,27.60
2019-01-31T04:00:34.564Z,25.77
2019-01-31T04:02:41.777Z,29.17
2019-01-31T04:05:01.453Z,26.60
2019-01-31T04:07:05.428Z,26.00
2019-01-31T04:09:10.072Z,26.10
2019-01-31T04:11:13.966Z,28.37
2019-01-31T04:13:19.189Z,28.00
2019-01-31T04:15:23.079Z,28.07
2019-01-31T04:17:26.969Z,27.77
2019-01-31T04:19:30.891Z,28.13
2019-01-31T04:21:34.729Z,27.50
2019-01-31T04:23:38.647Z,25.43
2019-01-31T04:25:42.511Z,27.53
2019-01-31T04:27:46.448Z,28.87
2019-01-31T04:29:50.348Z,27.53
2019-01-31T04:31:54.225Z,28.40
2019-01-31T04:33:58.092Z,27.20
2019-01-31T04:36:01.960Z,26.97
2019-01-31T04:38:05.885Z,27.63
2019-01-31T04:40:10.777Z,26.03
2019-01-31T04:42:14.774Z,28.37
2019-01-31T04:44:18.659Z,27.10
2019-01-31T04:46:22.551Z,27.07
2019-01-31T04:48:26.424Z,24.17
2019-01-31T04:50:30.347Z,27.93
2019-01-31T04:52:34.209Z,28.63
2019-01-31T04:54:38.110Z,25.67
2019-01-31T04:56:41.999Z,28.03
2019-01-31T04:58:45.888Z,27.37
2019-01-31T05:00:49.915Z,26.43
2019-01-31T05:02:54.329Z,26.07
2019-01-31T05:04:58.202Z,28.93
2019-01-31T05:07:02.122Z,26.00
2019-01-31T05:09:07.690Z,26.07
2019-01-31T05:11:11.838Z,27.87
2019-01-31T05:13:15.716Z,25.23
2019-01-31T05:15:19.600Z,27.43
2019-01-31T05:17:23.489Z,27.40
2019-01-31T05:19:27.414Z,25.13
2019-01-31T05:21:35.162Z,27.77
2019-01-31T05:23:39.541Z,25.57
2019-01-31T05:25:43.594Z,24.97
2019-01-31T05:27:47.621Z,27.30
2019-01-31T05:29:51.596Z,27.67
2019-01-31T05:31:55.461Z,28.03
2019-01-31T05:33:59.396Z,26.90
2019-01-31T05:36:03.285Z,24.60
2019-01-31T05:38:07.798Z,25.97
2019-01-31T05:40:14.240Z,25.47
2019-01-31T05:42:18.129Z,26.40
2019-01-31T05:44:22.032Z,25.20
2019-01-31T05:46:25.907Z,26.40
2019-01-31T05:48:30.828Z,23.47
2019-01-31T05:50:35.024Z,24.90
2019-01-31T05:52:38.883Z,24.77
2019-01-31T05:54:42.771Z,26.03
2019-01-31T05:56:47.204Z,26.00
2019-01-31T05:58:52.032Z,22.03
2019-01-31T06:00:55.969Z,25.77
2019-01-31T06:02:59.823Z,28.00
2019-01-31T06:05:04.408Z,26.73
2019-01-31T06:07:11.287Z,19.90
2019-01-31T06:09:13.882Z,25.43
2019-01-31T06:11:17.794Z,26.40
2019-01-31T06:13:21.861Z,22.10
2019-01-31T06:15:27.167Z,25.93
2019-01-31T06:17:31.542Z,24.20
2019-01-31T06:19:36.851Z,25.90
2019-01-31T06:21:40.834Z,24.53
2019-01-31T06:23:45.281Z,21.10
2019-01-31T06:25:49.972Z,21.10
2019-01-31T06:27:54.671Z,25.47
2019-01-31T06:29:58.549Z,20.93
2019-01-31T06:32:02.462Z,24.23
2019-01-31T06:34:06.347Z,24.47
2019-01-31T06:36:10.238Z,25.23
2019-01-31T06:38:15.449Z,20.23
2019-01-31T06:40:21.270Z,25.63
2019-01-31T06:42:25.202Z,22.37
2019-01-31T06:44:29.106Z,20.50
2019-01-31T06:46:32.987Z,23.50
2019-01-31T06:48:36.908Z,25.13
2019-01-31T06:50:40.791Z,24.33
2019-01-31T06:52:44.665Z,23.73
2019-01-31T06:54:48.554Z,25.83
2019-01-31T06:56:52.412Z,23.50
2019-01-31T06:58:56.282Z,21.83
2019-01-31T07:01:00.209Z,24.00
2019-01-31T07:03:04.183Z,27.40
2019-01-31T07:05:08.820Z,24.07
2019-01-31T07:07:12.674Z,21.77
2019-01-31T07:09:16.556Z,27.30
2019-01-31T07:11:29.732Z,19.53
2019-01-31T07:13:25.964Z,21.03
2019-01-31T07:15:29.841Z,22.67
2019-01-31T07:17:33.729Z,18.57
2019-01-31T07:19:37.594Z,17.40
2019-01-31T07:21:41.553Z,17.37
2019-01-31T07:23:45.980Z,17.77
2019-01-31T07:25:50.115Z,18.93
2019-01-31T07:27:54.045Z,21.20
2019-01-31T07:29:57.929Z,17.13
2019-01-31T07:32:03.647Z,21.50
2019-01-31T07:34:07.338Z,18.53
2019-01-31T07:36:11.206Z,22.50
2019-01-31T07:38:15.103Z,20.10
2019-01-31T07:40:21.370Z,19.63
2019-01-31T07:42:25.225Z,22.47
2019-01-31T07:44:29.127Z,18.13
2019-01-31T07:46:33.043Z,20.00
2019-01-31T07:48:36.881Z,19.87
2019-01-31T07:50:40.825Z,20.80
2019-01-31T07:52:44.666Z,17.90
2019-01-31T07:54:48.581Z,22.37
2019-01-31T07:56:52.460Z,19.53
2019-01-31T07:58:56.349Z,19.93
2019-01-31T08:01:00.269Z,20.37
2019-01-31T08:03:04.446Z,18.90
2019-01-31T08:05:11.490Z,19.30
2019-01-31T08:07:15.505Z,18.77
2019-01-31T08:09:19.393Z,17.47
2019-01-31T08:11:23.309Z,16.10
2019-01-31T08:13:27.206Z,15.97
2019-01-31T08:15:31.089Z,18.70
2019-01-31T08:17:34.978Z,17.33
2019-01-31T08:19:38.830Z,18.63
2019-01-31T08:21:42.693Z,16.27
2019-01-31T08:23:46.674Z,17.60
2019-01-31T08:25:50.504Z,15.57
2019-01-31T08:27:55.078Z,13.73
2019-01-31T08:29:59.069Z,15.60
2019-01-31T08:32:02.951Z,14.07
2019-01-31T08:34:06.845Z,15.43
2019-01-31T08:36:10.748Z,15.63
2019-01-31T08:38:14.646Z,15.87
2019-01-31T08:40:18.522Z,15.10
2019-01-31T08:42:22.802Z,14.00
2019-01-31T08:44:26.817Z,13.47
2019-01-31T08:46:30.715Z,13.07
2019-01-31T08:48:34.597Z,11.37
2019-01-31T08:50:38.573Z,14.50
2019-01-31T08:52:42.439Z,13.47
2019-01-31T08:54:46.388Z,14.37
2019-01-31T08:56:50.252Z,13.47
2019-01-31T08:58:54.156Z,14.10
2019-01-31T09:00:58.010Z,13.67
2019-01-31T09:03:01.908Z,14.03
2019-01-31T09:05:07.291Z,13.68
2019-01-31T09:07:11.194Z,13.37
2019-01-31T09:09:15.094Z,13.30
2019-01-31T09:11:18.947Z,13.53
2019-01-31T09:13:23.742Z,11.67
2019-01-31T09:15:27.912Z,13.10
2019-01-31T09:17:31.945Z,13.30
2019-01-31T09:19:35.805Z,14.00
2019-01-31T09:21:40.612Z,14.50
2019-01-31T09:23:59.364Z,14.17
2019-01-31T09:26:11.838Z,13.37
2019-01-31T09:28:27.530Z,14.00
2019-01-31T09:31:07.510Z,12.37
2019-01-31T09:33:26.497Z,13.40
2019-01-31T09:35:44.944Z,12.13
2019-01-31T09:38:14.423Z,14.03
2019-01-31T09:40:24.222Z,12.17
2019-01-31T09:42:36.874Z,15.53
2019-01-31T09:44:46.604Z,12.83
2019-01-31T09:47:12.549Z,13.17
2019-01-31T09:49:52.534Z,14.63
2019-01-31T09:52:23.553Z,14.07
2019-01-31T09:54:32.988Z,13.10
2019-01-31T09:57:03.892Z,12.60
2019-01-31T09:59:28.685Z,14.63
2019-01-31T10:01:43.917Z,11.60
2019-01-31T10:04:07.379Z,12.43
2019-01-31T10:06:32.362Z,12.67
2019-01-31T10:08:51.402Z,13.53
2019-01-31T10:11:06.938Z,13.27
2019-01-31T10:13:22.884Z,13.80
2019-01-31T10:15:32.668Z,15.47
2019-01-31T10:17:54.435Z,13.37
2019-01-31T10:20:16.459Z,12.93
2019-01-31T10:22:44.312Z,12.90
2019-01-31T10:25:08.606Z,16.23
2019-01-31T10:27:27.360Z,16.07
2019-01-31T10:29:53.028Z,20.07
2019-01-31T10:32:05.995Z,16.70
2019-01-31T10:34:25.017Z,14.17
2019-01-31T10:36:40.753Z,13.47
2019-01-31T10:38:59.335Z,16.07
2019-01-31T10:41:08.818Z,15.63
2019-01-31T10:43:44.752Z,14.90
2019-01-31T10:45:57.284Z,17.60
2019-01-31T10:48:15.958Z,15.33
2019-01-31T10:50:42.533Z,20.63
2019-01-31T10:53:08.917Z,17.10
2019-01-31T10:55:18.725Z,16.70
2019-01-31T10:57:31.636Z,21.67
2019-01-31T10:59:38.477Z,16.97
2019-01-31T11:01:50.916Z,17.87
2019-01-31T11:04:20.724Z,18.13
2019-01-31T11:06:52.773Z,16.93
2019-01-31T11:09:11.529Z,19.53
2019-01-31T11:11:18.392Z,18.33
2019-01-31T11:13:25.231Z,20.53
2019-01-31T11:15:54.701Z,23.10
2019-01-31T11:18:04.525Z,23.13
2019-01-31T11:20:17.106Z,18.40
2019-01-31T11:22:26.606Z,20.67
2019-01-31T11:24:45.208Z,19.03
2019-01-31T11:27:04.097Z,21.53
2019-01-31T11:29:23.055Z,20.93
2019-01-31T11:31:29.842Z,19.67
2019-01-31T11:33:51.909Z,18.10
2019-01-31T11:36:04.253Z,23.07
2019-01-31T11:38:17.005Z,22.23
2019-01-31T11:40:32.386Z,18.57
2019-01-31T11:43:11.308Z,22.30
2019-01-31T11:45:28.371Z,21.93
2019-01-31T11:47:37.743Z,21.37
2019-01-31T11:50:01.906Z,20.97
2019-01-31T11:52:28.325Z,20.27
2019-01-31T11:55:08.421Z,18.57
2019-01-31T11:57:36.242Z,23.03
2019-01-31T11:59:40.105Z,22.13
2019-01-31T12:01:44.125Z,20.77
2019-01-31T12:03:48.205Z,20.00
2019-01-31T12:05:52.094Z,17.93
2019-01-31T12:07:56.084Z,19.27
2019-01-31T12:09:59.949Z,20.13
2019-01-31T12:12:03.914Z,20.40
2019-01-31T12:14:07.831Z,19.60
2019-01-31T12:16:11.685Z,20.60
2019-01-31T12:18:15.712Z,20.43
2019-01-31T12:20:19.581Z,22.80
2019-01-31T12:22:23.473Z,20.10
2019-01-31T12:24:27.423Z,19.33
2019-01-31T12:26:31.274Z,25.23
2019-01-31T12:28:35.161Z,20.80
2019-01-31T12:30:39.072Z,19.17
2019-01-31T12:32:42.911Z,20.67
2019-01-31T12:34:46.858Z,19.70
2019-01-31T12:36:50.694Z,20.87
2019-01-31T12:38:55.055Z,23.40
2019-01-31T12:40:59.074Z,23.00
2019-01-31T12:43:02.934Z,19.50
2019-01-31T12:45:09.814Z,22.00
2019-01-31T12:47:13.747Z,22.97
2019-01-31T12:49:17.622Z,23.37
2019-01-31T12:51:21.484Z,20.13
2019-01-31T12:53:25.430Z,25.07
2019-01-31T12:55:29.358Z,21.63
2019-01-31T12:57:33.259Z,24.43
2019-01-31T12:59:37.105Z,22.77
2019-01-31T13:01:41.123Z,22.97
2019-01-31T13:03:45.087Z,26.63
2019-01-31T13:05:49.051Z,22.93
2019-01-31T13:07:52.989Z,21.20
2019-01-31T13:09:56.854Z,21.73
2019-01-31T13:12:00.771Z,22.53
2019-01-31T13:14:04.770Z,25.47
2019-01-31T13:16:08.849Z,22.00
2019-01-31T13:18:12.726Z,21.03
2019-01-31T13:20:19.640Z,22.87
2019-01-31T13:22:23.559Z,21.53
2019-01-31T13:24:27.426Z,21.13
2019-01-31T13:26:31.356Z,22.50
2019-01-31T13:28:35.216Z,22.47
2019-01-31T13:30:39.114Z,25.17
2019-01-31T13:32:42.965Z,20.50
2019-01-31T13:34:46.807Z,20.17
2019-01-31T13:36:50.717Z,22.77
2019-01-31T13:38:54.938Z,20.97
2019-01-31T13:40:58.926Z,25.90
2019-01-31T13:43:02.782Z,20.97
2019-01-31T13:45:09.578Z,23.90
2019-01-31T13:47:13.542Z,24.23
2019-01-31T13:49:17.956Z,29.20
2019-01-31T13:51:21.987Z,24.90
2019-01-31T13:53:25.858Z,29.57
2019-01-31T13:55:31.635Z,28.07
2019-01-31T13:57:35.561Z,26.87
2019-01-31T13:59:39.438Z,25.90
2019-01-31T14:01:43.281Z,27.53
2019-01-31T14:03:47.174Z,30.63
2019-01-31T14:05:51.118Z,30.93
2019-01-31T14:07:54.972Z,29.90
2019-01-31T14:09:58.862Z,29.57
2019-01-31T14:12:02.735Z,25.43
2019-01-31T14:14:09.073Z,29.43
2019-01-31T14:16:12.193Z,26.63
2019-01-31T14:18:16.040Z,26.90
2019-01-31T14:20:23.126Z,25.70
2019-01-31T14:22:27.017Z,26.53
2019-01-31T14:24:30.912Z,24.10
2019-01-31T14:26:34.784Z,23.60
2019-01-31T14:28:38.694Z,24.30
2019-01-31T14:30:42.570Z,23.17
2019-01-31T14:32:46.554Z,23.63
2019-01-31T14:34:50.462Z,21.97
2019-01-31T14:36:54.350Z,22.33
2019-01-31T14:38:58.252Z,19.80
2019-01-31T14:41:02.150Z,19.20
2019-01-31T14:43:05.997Z,21.57
2019-01-31T14:45:12.991Z,22.43
2019-01-31T14:47:16.924Z,19.43
2019-01-31T14:49:20.780Z,22.40
2019-01-31T14:51:24.715Z,21.47
2019-01-31T14:53:28.587Z,21.07
2019-01-31T14:55:32.526Z,23.27
2019-01-31T14:57:36.418Z,20.97
2019-01-31T14:59:40.300Z,20.67
2019-01-31T15:01:44.183Z,19.47
2019-01-31T15:03:48.090Z,17.93
2019-01-31T15:05:51.980Z,20.47
2019-01-31T15:07:55.912Z,17.87
2019-01-31T15:09:59.766Z,19.77
2019-01-31T15:12:03.619Z,19.27
2019-01-31T15:14:07.700Z,20.03
2019-01-31T15:16:11.582Z,19.13
2019-01-31T15:18:15.501Z,17.53
2019-01-31T15:20:22.078Z,20.37
2019-01-31T15:22:25.937Z,19.33
2019-01-31T15:24:29.932Z,17.67
2019-01-31T15:26:33.796Z,16.97
2019-01-31T15:28:37.713Z,16.63
2019-01-31T15:30:41.648Z,18.10
2019-01-31T15:32:45.490Z,20.33
2019-01-31T15:34:49.401Z,20.13
2019-01-31T15:36:53.286Z,19.10
2019-01-31T15:38:57.149Z,18.63
2019-01-31T15:41:01.049Z,18.70
2019-01-31T15:43:05.516Z,18.20
2019-01-31T15:45:10.061Z,18.30
2019-01-31T15:47:13.909Z,18.57
2019-01-31T15:49:17.786Z,20.23
2019-01-31T15:51:21.685Z,18.37
2019-01-31T15:53:25.554Z,19.93
2019-01-31T15:55:29.775Z,19.27
2019-01-31T15:57:33.665Z,18.53
2019-01-31T15:59:37.552Z,17.90
2019-01-31T16:01:41.465Z,18.13
2019-01-31T16:03:45.361Z,17.97
2019-01-31T16:05:49.754Z,17.17
2019-01-31T16:07:53.770Z,19.80
2019-01-31T16:09:57.623Z,19.23
2019-01-31T16:12:01.620Z,19.13
2019-01-31T16:14:05.871Z,17.07
2019-01-31T16:16:09.761Z,17.73
2019-01-31T16:18:14.009Z,18.90
2019-01-31T16:20:17.916Z,18.00
2019-01-31T16:22:21.841Z,18.97
2019-01-31T16:24:25.725Z,18.50
2019-01-31T16:26:29.592Z,18.23
2019-01-31T16:28:33.457Z,18.63
2019-01-31T16:30:37.357Z,18.40
2019-01-31T16:32:41.337Z,19.53
2019-01-31T16:34:45.215Z,19.13
2019-01-31T16:36:49.145Z,17.63
2019-01-31T16:38:52.981Z,17.53
2019-01-31T16:40:57.037Z,17.33
2019-01-31T16:43:00.925Z,18.07
2019-01-31T16:45:07.529Z,17.17
2019-01-31T16:47:11.425Z,18.13
2019-01-31T16:49:15.291Z,16.97
2019-01-31T16:51:19.148Z,17.57
2019-01-31T16:53:23.094Z,18.20
2019-01-31T16:55:28.931Z,17.83
2019-01-31T16:57:33.264Z,18.50
2019-01-31T16:59:37.208Z,18.47
2019-01-31T17:01:41.140Z,17.67
2019-01-31T17:03:45.031Z,17.60
2019-01-31T17:05:48.932Z,18.47
2019-01-31T17:07:52.863Z,17.80
2019-01-31T17:09:56.738Z,17.50
2019-01-31T17:12:00.592Z,18.93
2019-01-31T17:14:04.530Z,18.40
2019-01-31T17:16:08.393Z,18.37
2019-01-31T17:18:12.383Z,17.73
2019-01-31T17:20:21.764Z,17.23
2019-01-31T17:22:25.646Z,18.00
2019-01-31T17:24:29.564Z,17.93
2019-01-31T17:26:33.436Z,16.17
2019-01-31T17:28:37.337Z,18.03
2019-01-31T17:30:41.274Z,17.70
2019-01-31T17:32:45.189Z,16.93
2019-01-31T17:34:49.184Z,17.30
2019-01-31T17:36:53.085Z,17.43
2019-01-31T17:38:56.952Z,17.27
2019-01-31T17:41:00.842Z,15.33
2019-01-31T17:43:05.406Z,15.63
2019-01-31T17:45:12.485Z,16.57
2019-01-31T17:47:16.405Z,16.63
2019-01-31T17:49:20.258Z,18.13
2019-01-31T17:51:24.166Z,16.70
2019-01-31T17:53:28.032Z,16.67
2019-01-31T17:55:31.895Z,17.73
2019-01-31T17:57:35.794Z,17.53
2019-01-31T17:59:39.711Z,17.07
2019-01-31T18:01:43.628Z,16.87
2019-01-31T18:03:47.474Z,16.77
2019-01-31T18:05:51.342Z,19.50
2019-01-31T18:07:55.265Z,20.00
2019-01-31T18:09:59.132Z,19.17
2019-01-31T18:12:03.009Z,21.40
2019-01-31T18:14:07.194Z,19.47
2019-01-31T18:16:11.050Z,22.20
2019-01-31T18:18:14.915Z,19.73
2019-01-31T18:20:23.216Z,18.90
2019-01-31T18:22:27.056Z,18.90
2019-01-31T18:24:30.940Z,19.00
2019-01-31T18:26:34.817Z,18.47
2019-01-31T18:28:38.742Z,19.20
2019-01-31T18:30:42.710Z,19.60
2019-01-31T18:32:46.614Z,21.47
2019-01-31T18:34:50.526Z,19.97
2019-01-31T18:36:54.374Z,20.93
2019-01-31T18:38:58.277Z,18.03
2019-01-31T18:41:02.159Z,19.07
2019-01-31T18:43:06.246Z,18.70
2019-01-31T18:45:13.134Z,17.50
2019-01-31T18:47:16.971Z,17.00
2019-01-31T18:49:20.834Z,16.87
2019-01-31T18:51:24.768Z,17.07
2019-01-31T18:53:28.635Z,18.70
2019-01-31T18:55:32.494Z,16.93
2019-01-31T18:57:36.399Z,17.03
2019-01-31T18:59:40.328Z,15.93
2019-01-31T19:01:44.191Z,16.57
2019-01-31T19:03:48.072Z,15.33
2019-01-31T19:05:52.043Z,15.13
2019-01-31T19:07:56.029Z,15.07
2019-01-31T19:09:59.881Z,14.57
2019-01-31T19:12:03.902Z,13.60
2019-01-31T19:14:08.222Z,12.57
2019-01-31T19:16:12.073Z,12.27
2019-01-31T19:18:16.079Z,12.13
2019-01-31T19:20:25.482Z,11.90
2019-01-31T19:22:29.373Z,10.67
2019-01-31T19:24:33.297Z,10.10
2019-01-31T19:26:37.194Z,8.97
2019-01-31T19:28:41.050Z,10.43
2019-01-31T19:30:44.962Z,8.70
2019-01-31T19:32:48.864Z,8.60
2019-01-31T19:34:52.845Z,9.40
2019-01-31T19:36:56.839Z,8.73
2019-01-31T19:39:00.849Z,7.73
2019-01-31T19:41:05.091Z,7.60
2019-01-31T19:43:09.233Z,8.43
2019-01-31T19:45:22.137Z,7.53
2019-01-31T19:47:26.353Z,8.20
2019-01-31T19:49:30.522Z,7.10
2019-01-31T19:51:34.613Z,8.23
2019-01-31T19:53:38.624Z,7.00
2019-01-31T19:55:42.948Z,7.67
2019-01-31T19:57:46.952Z,7.77
2019-01-31T19:59:50.928Z,7.37
2019-01-31T20:01:54.979Z,7.03
2019-01-31T20:03:58.931Z,6.83
2019-01-31T20:06:06.665Z,6.50
2019-01-31T20:08:10.742Z,6.43
2019-01-31T20:10:27.007Z,7.13
2019-01-31T20:12:30.962Z,6.60
2019-01-31T20:14:35.014Z,6.50
2019-01-31T20:16:39.181Z,6.27
2019-01-31T20:18:43.441Z,5.90
2019-01-31T20:20:47.606Z,6.43
2019-01-31T20:22:52.646Z,5.93
2019-01-31T20:24:56.726Z,7.40
2019-01-31T20:27:00.706Z,6.23
2019-01-31T20:29:04.850Z,6.20
2019-01-31T20:31:08.917Z,5.17
2019-01-31T20:33:13.008Z,6.10
2019-01-31T20:35:19.095Z,5.53
2019-01-31T20:37:23.006Z,5.60
2019-01-31T20:39:26.943Z,5.77
2019-01-31T20:41:30.898Z,5.85
2019-01-31T20:43:34.830Z,5.93
2019-01-31T20:45:38.875Z,6.03
2019-01-31T20:47:42.794Z,5.03
2019-01-31T20:49:46.647Z,5.47
2019-01-31T20:51:50.503Z,5.17
2019-01-31T20:53:54.385Z,5.90
2019-01-31T20:55:58.255Z,5.60
2019-01-31T20:58:02.146Z,5.63
2019-01-31T21:00:10.874Z,5.53
2019-01-31T21:02:14.750Z,5.40
2019-01-31T21:04:18.642Z,5.20
2019-01-31T21:06:22.502Z,5.17
2019-01-31T21:08:26.563Z,5.30
2019-01-31T21:10:30.445Z,4.90
2019-01-31T21:12:34.360Z,5.23
2019-01-31T21:14:38.245Z,5.47
2019-01-31T21:16:51.373Z,5.47
2019-01-31T21:18:47.834Z,5.30
2019-01-31T21:20:51.710Z,5.63
2019-01-31T21:22:55.899Z,5.60
2019-01-31T21:24:59.770Z,4.53
2019-01-31T21:27:03.824Z,5.17
2019-01-31T21:29:07.709Z,4.80
2019-01-31T21:31:13.253Z,5.60
2019-01-31T21:33:17.139Z,5.10
2019-01-31T21:35:21.835Z,4.97
2019-01-31T21:37:26.333Z,4.73
2019-01-31T21:39:30.272Z,6.00
2019-01-31T21:41:34.112Z,4.60
2019-01-31T21:43:38.478Z,4.90
2019-01-31T21:45:42.451Z,5.27
2019-01-31T21:47:46.332Z,5.70
2019-01-31T21:49:50.219Z,4.93
2019-01-31T21:51:54.094Z,5.27
2019-01-31T21:53:58.006Z,6.10
2019-01-31T21:56:01.886Z,5.70
2019-01-31T21:58:06.466Z,5.30
2019-01-31T22:00:13.308Z,5.17
2019-01-31T22:02:17.227Z,4.83
2019-01-31T22:04:21.068Z,5.37
2019-01-31T22:06:24.937Z,5.80
2019-01-31T22:08:29.269Z,6.00
2019-01-31T22:10:33.212Z,5.27
2019-01-31T22:12:37.077Z,5.60
2019-01-31T22:14:41.011Z,5.53
2019-01-31T22:16:44.875Z,6.00
2019-01-31T22:18:48.792Z,5.30
2019-01-31T22:20:52.681Z,5.17
2019-01-31T22:22:56.505Z,5.87
2019-01-31T22:25:00.566Z,5.50
2019-01-31T22:27:04.448Z,5.80
2019-01-31T22:29:08.791Z,5.77
2019-01-31T22:31:12.695Z,5.40
2019-01-31T22:33:17.062Z,5.33
2019-01-31T22:35:21.028Z,5.60
2019-01-31T22:37:24.894Z,5.60
2019-01-31T22:39:28.752Z,4.90
2019-01-31T22:41:32.756Z,5.00
2019-01-31T22:43:36.624Z,5.13
2019-01-31T22:45:44.993Z,5.10
2019-01-31T22:47:49.306Z,5.63
2019-01-31T22:49:53.975Z,5.03
2019-01-31T22:51:57.929Z,5.70
2019-01-31T22:54:01.770Z,4.57
2019-01-31T22:56:06.948Z,4.93
2019-01-31T22:58:10.886Z,5.17
2019-01-31T23:00:52.539Z,4.97
2019-01-31T23:02:56.430Z,5.73
2019-01-31T23:05:00.333Z,5.43
2019-01-31T23:07:04.845Z,5.47
2019-01-31T23:09:09.559Z,4.90
2019-01-31T23:11:14.481Z,5.87
2019-01-31T23:13:18.641Z,5.43
2019-01-31T23:15:23.991Z,5.43
2019-01-31T23:17:36.875Z,5.73
2019-01-31T23:19:34.380Z,5.90
2019-01-31T23:21:38.382Z,4.97
2019-01-31T23:23:42.950Z,5.47
2019-01-31T23:25:46.866Z,5.07
2019-01-31T23:27:50.759Z,5.47
2019-01-31T23:29:54.940Z,5.30
2019-01-31T23:31:59.074Z,5.37
2019-01-31T23:34:02.953Z,5.20
2019-01-31T23:36:06.843Z,5.53
2019-01-31T23:38:10.724Z,5.23
2019-01-31T23:40:15.474Z,5.70
2019-01-31T23:42:19.321Z,5.63
2019-01-31T23:44:23.212Z,5.33
2019-01-31T23:46:27.517Z,5.20
2019-01-31T23:48:31.372Z,5.63
2019-01-31T23:50:35.240Z,5.27
2019-01-31T23:52:39.137Z,5.77
2019-01-31T23:54:43.024Z,5.23
2019-01-31T23:56:46.947Z,5.90
2019-01-31T23:58:54.726Z,6.10
